Time;durP1;ratioP1;P1;durP2;ratioP2;P2;SDS_P1;SDS_P2;PMS_P1;PMS_P2;Temp;Humidity;BMP_temperature;BMP_pressure;BME280_temperature;BME280_humidity;BME280_pressure;Samples;Min_cycle;Max_cycle;Signal;HPM_P1;HPM_P2
2020/12/25 00:00:46;;;;;;;5.03;1.23;;;4.80;99.90;;;;;;5047016;28;20586;-79
2020/12/25 00:03:15;;;;;;;5.47;1.70;;;4.90;99.90;;;;;;5046580;28;20194;-80
2020/12/25 00:05:43;;;;;;;6.60;1.20;;;4.90;99.90;;;;;;5047531;28;20241;-81
2020/12/25 00:08:10;;;;;;;6.50;2.23;;;4.90;99.90;;;;;;5047935;28;20190;-80
2020/12/25 00:10:37;;;;;;;1.83;0.80;;;5.00;99.90;;;;;;5048248;28;20206;-81
2020/12/25 00:13:03;;;;;;;1.63;0.60;;;5.00;99.90;;;;;;5047488;28;20692;-82
2020/12/25 00:15:30;;;;;;;4.60;0.90;;;5.00;99.90;;;;;;5047280;28;20202;-80
2020/12/25 00:17:56;;;;;;;3.70;0.90;;;4.90;99.90;;;;;;5047271;28;20198;-80
2020/12/25 00:20:23;;;;;;;3.03;0.90;;;4.90;99.90;;;;;;5047269;28;20601;-81
2020/12/25 00:22:49;;;;;;;4.20;0.70;;;4.90;99.90;;;;;;5046306;28;20194;-80
2020/12/25 00:25:15;;;;;;;2.13;0.90;;;4.90;99.90;;;;;;5045993;28;20210;-80
2020/12/25 00:27:43;;;;;;;4.83;1.00;;;4.80;99.90;;;;;;5047233;28;20202;-81
2020/12/25 00:30:09;;;;;;;5.93;1.00;;;4.90;99.90;;;;;;5045777;28;20213;-80
2020/12/25 00:32:36;;;;;;;2.10;0.70;;;4.90;99.90;;;;;;5046052;28;20190;-81
2020/12/25 00:35:02;;;;;;;1.83;0.83;;;4.90;99.90;;;;;;5047189;28;20226;-80
2020/12/25 00:37:28;;;;;;;2.20;0.73;;;4.90;99.90;;;;;;5045708;28;20264;-81
2020/12/25 00:39:54;;;;;;;2.43;0.87;;;4.90;99.90;;;;;;5046321;28;20198;-80
2020/12/25 00:42:21;;;;;;;2.77;1.10;;;4.90;99.90;;;;;;5046628;28;20209;-83
2020/12/25 00:44:48;;;;;;;3.63;0.90;;;4.80;99.90;;;;;;5044999;28;20224;-82
2020/12/25 00:47:14;;;;;;;3.13;1.13;;;4.80;99.90;;;;;;5043825;28;20210;-81
2020/12/25 00:49:40;;;;;;;1.43;0.97;;;4.80;99.90;;;;;;5046389;28;20206;-81
2020/12/25 00:52:07;;;;;;;2.43;0.80;;;4.70;99.90;;;;;;5047508;28;20237;-81
2020/12/25 00:54:33;;;;;;;3.37;0.70;;;4.60;99.90;;;;;;5045989;28;20225;-81
2020/12/25 00:56:59;;;;;;;1.63;0.67;;;4.60;99.90;;;;;;5046590;28;20197;-80
2020/12/25 00:59:25;;;;;;;1.90;0.97;;;4.50;99.90;;;;;;5046449;28;20213;-82
2020/12/25 01:01:53;;;;;;;0.90;0.63;;;4.50;99.90;;;;;;5046099;28;20257;-81
2020/12/25 01:04:20;;;;;;;0.83;0.63;;;4.40;99.90;;;;;;5045278;28;20621;-81
2020/12/25 01:06:46;;;;;;;2.00;0.90;;;4.40;99.90;;;;;;5046420;28;20554;-82
2020/12/25 01:09:12;;;;;;;2.67;0.67;;;4.40;99.90;;;;;;5046427;28;20578;-82
2020/12/25 01:11:40;;;;;;;1.73;0.73;;;4.30;99.90;;;;;;5045977;28;20202;-82
2020/12/25 01:14:07;;;;;;;2.70;1.00;;;4.30;99.90;;;;;;5046647;28;20602;-81
2020/12/25 01:16:33;;;;;;;2.10;0.70;;;4.40;99.90;;;;;;5047241;28;20300;-80
2020/12/25 01:19:01;;;;;;;1.90;1.10;;;4.30;99.90;;;;;;5045906;28;20197;-82
2020/12/25 01:21:27;;;;;;;2.20;0.70;;;4.30;99.90;;;;;;5046404;28;20221;-82
2020/12/25 01:23:53;;;;;;;2.17;0.70;;;4.30;99.90;;;;;;5046552;28;20621;-83
2020/12/25 01:26:20;;;;;;;1.77;0.60;;;4.30;99.90;;;;;;5046957;28;20201;-81
2020/12/25 01:28:46;;;;;;;2.07;0.90;;;4.20;99.90;;;;;;5047059;28;20201;-81
2020/12/25 01:31:12;;;;;;;3.40;0.70;;;4.20;99.90;;;;;;5046024;28;20206;-81
2020/12/25 01:33:38;;;;;;;1.50;0.60;;;4.20;99.90;;;;;;5046643;28;20279;-82
2020/12/25 01:36:06;;;;;;;2.37;0.70;;;4.10;99.90;;;;;;5046297;28;20897;-82
2020/12/25 01:38:32;;;;;;;2.67;0.77;;;4.10;99.90;;;;;;5044985;28;20220;-81
2020/12/25 01:40:59;;;;;;;4.10;0.60;;;4.10;99.90;;;;;;5044810;28;20194;-81
2020/12/25 01:43:25;;;;;;;2.57;0.60;;;4.00;99.90;;;;;;5047810;28;20198;-81
2020/12/25 01:45:52;;;;;;;2.57;0.77;;;4.00;99.90;;;;;;5046236;28;20252;-81
2020/12/25 01:48:19;;;;;;;1.90;0.90;;;3.90;99.90;;;;;;5042840;28;20553;-80
2020/12/25 01:50:45;;;;;;;3.03;0.63;;;3.80;99.90;;;;;;5026516;28;20629;-82
2020/12/25 01:53:17;;;;;;;3.40;0.80;;;3.80;99.90;;;;;;5024825;28;20622;-81
2020/12/25 01:55:43;;;;;;;3.80;0.90;;;3.80;99.90;;;;;;5026178;28;20603;-79
2020/12/25 01:58:10;;;;;;;5.50;1.50;;;3.80;99.90;;;;;;5026482;28;20205;-81
2020/12/25 02:00:37;;;;;;;7.70;1.70;;;3.80;99.90;;;;;;5026195;28;20210;-80
2020/12/25 02:03:03;;;;;;;4.13;1.30;;;3.80;99.90;;;;;;5025693;28;20273;-83
2020/12/25 02:05:30;;;;;;;6.37;1.40;;;3.80;99.90;;;;;;5026488;28;20281;-83
2020/12/25 02:07:57;;;;;;;5.37;1.50;;;3.80;99.90;;;;;;5025497;28;20214;-80
2020/12/25 02:10:24;;;;;;;8.73;1.77;;;3.80;99.90;;;;;;5024934;28;20942;-80
2020/12/25 02:12:51;;;;;;;6.57;1.60;;;3.80;99.90;;;;;;5026138;28;20203;-83
2020/12/25 02:15:18;;;;;;;8.53;2.20;;;3.80;99.90;;;;;;5026192;28;20213;-83
2020/12/25 02:17:45;;;;;;;14.00;2.53;;;3.80;99.90;;;;;;5026098;28;20310;-80
2020/12/25 02:20:12;;;;;;;7.47;2.53;;;4.00;99.90;;;;;;5024445;28;20239;-80
2020/12/25 02:22:39;;;;;;;12.40;2.57;;;4.20;99.90;;;;;;5026073;28;20191;-83
2020/12/25 02:25:06;;;;;;;9.17;2.10;;;4.30;99.90;;;;;;5026218;28;20214;-82
2020/12/25 02:27:33;;;;;;;12.63;1.90;;;4.30;99.90;;;;;;5025019;28;20207;-82
2020/12/25 02:29:59;;;;;;;12.87;2.00;;;4.40;99.90;;;;;;5025872;28;20237;-83
2020/12/25 02:32:25;;;;;;;7.53;2.00;;;4.40;99.90;;;;;;5029208;28;20202;-84
2020/12/25 02:34:52;;;;;;;9.37;2.13;;;4.40;99.90;;;;;;5028903;28;20226;-83
2020/12/25 02:37:18;;;;;;;9.87;2.17;;;4.40;99.90;;;;;;5029317;28;20205;-80
2020/12/25 02:39:45;;;;;;;8.73;2.07;;;4.40;99.90;;;;;;5029824;28;20218;-81
2020/12/25 02:42:12;;;;;;;6.87;2.57;;;4.50;99.90;;;;;;5028851;28;20203;-79
2020/12/25 02:44:39;;;;;;;9.50;1.70;;;4.50;99.90;;;;;;5029100;28;20210;-81
2020/12/25 02:47:05;;;;;;;11.47;2.10;;;4.60;99.90;;;;;;5029382;28;20203;-79
2020/12/25 02:49:31;;;;;;;12.50;2.37;;;4.70;99.90;;;;;;5028094;28;20198;-80
2020/12/25 02:51:59;;;;;;;13.80;2.93;;;4.80;99.90;;;;;;5027649;28;20222;-82
2020/12/25 02:54:25;;;;;;;9.53;1.53;;;4.90;99.90;;;;;;5029268;28;20215;-83
2020/12/25 02:56:52;;;;;;;7.60;1.60;;;5.00;99.90;;;;;;5028509;28;20586;-83
2020/12/25 02:59:18;;;;;;;3.37;0.70;;;5.00;99.90;;;;;;5029166;28;20198;-81
2020/12/25 03:01:49;;;;;;;5.43;0.97;;;5.00;99.90;;;;;;5028834;28;20206;-80
2020/12/25 03:04:16;;;;;;;2.17;0.83;;;4.90;99.90;;;;;;5028498;28;20321;-81
2020/12/25 03:06:42;;;;;;;4.07;0.87;;;5.10;99.90;;;;;;5028609;28;20214;-82
2020/12/25 03:09:08;;;;;;;5.83;1.90;;;5.10;99.90;;;;;;5028074;28;20199;-81
2020/12/25 03:11:35;;;;;;;3.87;1.00;;;5.10;99.90;;;;;;5028311;28;20206;-80
2020/12/25 03:14:02;;;;;;;5.17;1.37;;;5.10;99.90;;;;;;5027655;28;20218;-83
2020/12/25 03:16:28;;;;;;;10.23;1.23;;;5.00;99.90;;;;;;5029307;28;20203;-82
2020/12/25 03:18:54;;;;;;;7.97;1.20;;;4.90;99.90;;;;;;5028078;28;20214;-82
2020/12/25 03:21:21;;;;;;;6.60;1.40;;;4.90;99.90;;;;;;5034026;28;20245;-82
2020/12/25 03:23:47;;;;;;;2.43;1.30;;;4.90;99.90;;;;;;5044975;28;20202;-83
2020/12/25 03:26:14;;;;;;;4.60;1.00;;;4.80;99.90;;;;;;5045759;28;20206;-82
2020/12/25 03:28:41;;;;;;;7.50;1.20;;;4.70;99.90;;;;;;5046138;28;20202;-81
2020/12/25 03:31:08;;;;;;;6.00;1.50;;;4.70;99.90;;;;;;5046276;28;20206;-81
2020/12/25 03:33:34;;;;;;;5.17;1.53;;;4.70;99.90;;;;;;5046631;28;20237;-82
2020/12/25 03:36:01;;;;;;;6.50;1.13;;;4.80;99.90;;;;;;5045958;28;20624;-83
2020/12/25 03:38:27;;;;;;;5.00;1.30;;;4.80;99.90;;;;;;5044737;28;20202;-81
2020/12/25 03:40:54;;;;;;;8.43;1.60;;;4.90;99.90;;;;;;5046891;28;20194;-82
2020/12/25 03:43:20;;;;;;;14.83;2.07;;;5.00;99.90;;;;;;5046413;28;20209;-82
2020/12/25 03:45:46;;;;;;;7.40;1.60;;;5.00;99.90;;;;;;5047075;28;20217;-82
2020/12/25 03:48:13;;;;;;;13.50;2.43;;;4.90;99.90;;;;;;5047198;28;20248;-82
2020/12/25 03:50:40;;;;;;;13.37;2.10;;;4.90;99.90;;;;;;5048312;28;20252;-82
2020/12/25 03:53:06;;;;;;;7.80;2.00;;;4.90;99.90;;;;;;5047711;28;20210;-82
2020/12/25 03:55:32;;;;;;;9.87;1.73;;;4.90;99.90;;;;;;5049644;28;20202;-82
2020/12/25 03:57:59;;;;;;;9.33;2.30;;;4.90;99.90;;;;;;5049337;28;20190;-82
2020/12/25 04:00:26;;;;;;;18.10;3.03;;;4.80;99.90;;;;;;5049123;28;20285;-82
2020/12/25 04:02:52;;;;;;;8.93;2.30;;;4.70;99.90;;;;;;5048987;28;20201;-82
2020/12/25 04:05:19;;;;;;;10.13;1.90;;;4.70;99.90;;;;;;5048773;28;20194;-82
2020/12/25 04:07:45;;;;;;;12.00;2.30;;;4.60;99.90;;;;;;5048208;28;20209;-82
2020/12/25 04:10:12;;;;;;;15.83;2.40;;;4.60;99.90;;;;;;5048880;28;20228;-82
2020/12/25 04:12:38;;;;;;;9.60;2.20;;;4.50;99.90;;;;;;5048613;28;20248;-82
2020/12/25 04:15:04;;;;;;;6.57;1.83;;;4.50;99.90;;;;;;5048025;28;20218;-82
2020/12/25 04:17:30;;;;;;;9.67;2.83;;;4.60;99.90;;;;;;5048267;28;20328;-83
2020/12/25 04:19:57;;;;;;;13.73;2.30;;;4.60;99.90;;;;;;5046794;28;20237;-82
2020/12/25 04:22:24;;;;;;;16.77;2.57;;;4.50;99.90;;;;;;5028962;28;20893;-81
2020/12/25 04:24:50;;;;;;;14.87;2.23;;;4.50;99.90;;;;;;5026783;28;20499;-82
2020/12/25 04:27:17;;;;;;;9.17;1.93;;;4.60;99.90;;;;;;5027627;28;20733;-81
2020/12/25 04:29:43;;;;;;;9.50;1.87;;;4.60;99.90;;;;;;5027452;28;20684;-81
2020/12/25 04:32:09;;;;;;;15.27;3.77;;;4.70;99.90;;;;;;5022907;28;20221;-82
2020/12/25 04:34:35;;;;;;;16.93;2.30;;;4.70;99.90;;;;;;5023245;28;20292;-80
2020/12/25 04:37:02;;;;;;;10.90;2.23;;;4.70;99.90;;;;;;5025754;28;20260;-79
2020/12/25 04:39:29;;;;;;;13.97;2.53;;;4.80;99.90;;;;;;5026157;28;20547;-80
2020/12/25 04:41:56;;;;;;;10.97;1.77;;;4.90;99.90;;;;;;5024528;28;20236;-80
2020/12/25 04:44:22;;;;;;;5.60;1.60;;;4.80;99.90;;;;;;5025007;28;20194;-79
2020/12/25 04:46:51;;;;;;;10.80;2.70;;;4.80;99.90;;;;;;5024498;28;20217;-80
2020/12/25 04:49:18;;;;;;;17.90;2.20;;;4.80;99.90;;;;;;5023779;28;20238;-80
2020/12/25 04:51:44;;;;;;;8.63;1.87;;;4.80;99.90;;;;;;5024809;28;20233;-80
2020/12/25 04:54:11;;;;;;;12.07;2.43;;;4.70;99.90;;;;;;5022969;28;20904;-79
2020/12/25 04:56:38;;;;;;;9.43;2.17;;;4.70;99.90;;;;;;5023541;28;20599;-78
2020/12/25 04:59:04;;;;;;;15.77;2.87;;;4.70;99.90;;;;;;5024581;28;20202;-81
2020/12/25 05:01:31;;;;;;;16.40;1.97;;;4.60;99.90;;;;;;5024868;28;20917;-82
2020/12/25 05:03:57;;;;;;;8.07;1.63;;;4.60;99.90;;;;;;5024012;28;20204;-79
2020/12/25 05:06:24;;;;;;;9.50;2.00;;;4.50;99.90;;;;;;5024218;28;20206;-79
2020/12/25 05:08:52;;;;;;;8.80;1.97;;;4.50;99.90;;;;;;5024395;28;20210;-79
2020/12/25 05:11:19;;;;;;;14.43;2.20;;;4.40;99.90;;;;;;5024475;28;20198;-82
2020/12/25 05:13:48;;;;;;;12.73;1.80;;;4.40;99.90;;;;;;5023676;28;20226;-79
2020/12/25 05:16:15;;;;;;;11.77;2.10;;;4.40;99.90;;;;;;5024223;28;20253;-80
2020/12/25 05:18:44;;;;;;;9.80;1.57;;;4.40;99.90;;;;;;5024435;28;20849;-81
2020/12/25 05:21:11;;;;;;;11.27;1.60;;;4.40;99.90;;;;;;5030997;28;20226;-79
2020/12/25 05:23:39;;;;;;;8.20;1.87;;;4.40;99.90;;;;;;5043415;28;20208;-79
2020/12/25 05:26:07;;;;;;;10.10;1.93;;;4.40;99.90;;;;;;5044286;28;20258;-78
2020/12/25 05:28:37;;;;;;;7.60;1.37;;;4.50;99.90;;;;;;5044197;28;20198;-79
2020/12/25 05:31:04;;;;;;;6.63;1.30;;;4.60;99.90;;;;;;5043421;28;20230;-80
2020/12/25 05:33:32;;;;;;;8.53;1.60;;;4.60;99.90;;;;;;5045040;28;20193;-79
2020/12/25 05:35:58;;;;;;;9.53;1.40;;;4.70;99.90;;;;;;5044471;28;21022;-81
2020/12/25 05:38:27;;;;;;;8.30;2.53;;;4.70;99.90;;;;;;5043239;28;20194;-79
2020/12/25 05:40:54;;;;;;;9.27;1.40;;;4.70;99.90;;;;;;5044385;28;20198;-83
2020/12/25 05:43:21;;;;;;;7.77;1.87;;;4.70;99.90;;;;;;5045357;28;20309;-83
2020/12/25 05:45:47;;;;;;;18.73;3.17;;;4.70;99.90;;;;;;5043612;28;20295;-79
2020/12/25 05:48:14;;;;;;;4.83;2.23;;;4.60;99.90;;;;;;5044985;28;20209;-79
2020/12/25 05:50:42;;;;;;;5.57;1.37;;;4.60;99.90;;;;;;5044027;28;20221;-83
2020/12/25 05:53:09;;;;;;;5.03;1.30;;;4.50;99.90;;;;;;5045054;28;20209;-81
2020/12/25 05:55:37;;;;;;;4.60;1.40;;;4.40;99.90;;;;;;5044656;28;20320;-79
2020/12/25 05:58:04;;;;;;;4.23;1.13;;;4.40;99.90;;;;;;5044211;28;20217;-79
2020/12/25 06:00:31;;;;;;;9.90;1.40;;;4.30;99.90;;;;;;5044193;28;20202;-80
2020/12/25 06:02:58;;;;;;;6.33;1.80;;;4.30;99.90;;;;;;5045504;28;20679;-79
2020/12/25 06:05:27;;;;;;;8.40;1.57;;;4.20;99.90;;;;;;5043951;28;20880;-80
2020/12/25 06:07:56;;;;;;;12.10;1.60;;;4.10;99.90;;;;;;5048265;28;20194;-80
2020/12/25 06:10:24;;;;;;;9.00;1.30;;;4.10;99.90;;;;;;5050646;28;20209;-83
2020/12/25 06:12:51;;;;;;;6.00;1.43;;;4.10;99.90;;;;;;5049186;28;20666;-80
2020/12/25 06:15:24;;;;;;;8.13;2.10;;;4.10;99.90;;;;;;5049236;28;20222;-79
2020/12/25 06:18:15;;;;;;;9.47;2.13;;;4.20;99.90;;;;;;5050290;28;20505;-81
2020/12/25 06:20:50;;;;;;;8.30;2.40;;;4.40;99.90;;;;;;5027700;28;20794;-82
2020/12/25 06:23:20;;;;;;;12.03;2.10;;;4.50;99.90;;;;;;5028327;28;20191;-81
2020/12/25 06:25:50;;;;;;;10.87;1.97;;;4.50;99.90;;;;;;5028992;28;20623;-80
2020/12/25 06:28:18;;;;;;;18.87;3.77;;;4.50;99.90;;;;;;5028321;28;20206;-81
2020/12/25 06:30:45;;;;;;;13.67;2.50;;;4.40;99.90;;;;;;5028331;28;20195;-81
2020/12/25 06:33:11;;;;;;;10.63;2.00;;;4.50;99.90;;;;;;5028276;28;20237;-80
2020/12/25 06:35:39;;;;;;;13.07;2.43;;;4.50;99.90;;;;;;5027628;28;20276;-80
2020/12/25 06:38:09;;;;;;;14.60;2.83;;;4.40;99.90;;;;;;5027649;28;20890;-80
2020/12/25 06:40:36;;;;;;;11.03;1.87;;;4.40;99.90;;;;;;5028366;28;20256;-82
2020/12/25 06:43:03;;;;;;;8.67;1.60;;;4.30;99.90;;;;;;5027290;28;20501;-80
2020/12/25 06:45:32;;;;;;;10.73;1.90;;;4.30;99.90;;;;;;5027091;28;20195;-81
2020/12/25 06:48:12;;;;;;;6.33;1.77;;;4.30;99.90;;;;;;5027479;28;20206;-80
2020/12/25 06:50:50;;;;;;;8.47;2.13;;;4.20;99.90;;;;;;5027352;28;20229;-82
2020/12/25 06:53:34;;;;;;;9.40;3.03;;;4.30;99.90;;;;;;5027867;28;20210;-79
2020/12/25 06:56:13;;;;;;;8.33;1.70;;;4.40;99.90;;;;;;5028415;28;20203;-81
2020/12/25 06:58:46;;;;;;;12.13;2.17;;;4.40;99.90;;;;;;5028038;28;20198;-79
2020/12/25 07:01:13;;;;;;;4.97;1.30;;;4.50;99.90;;;;;;5028212;28;20206;-79
2020/12/25 07:03:40;;;;;;;8.43;1.47;;;4.50;99.90;;;;;;5028132;28;20210;-82
2020/12/25 07:06:09;;;;;;;12.73;2.17;;;4.40;99.90;;;;;;5028572;28;20524;-82
2020/12/25 07:08:44;;;;;;;5.43;1.37;;;4.40;99.90;;;;;;5028598;28;20210;-80
2020/12/25 07:11:12;;;;;;;6.10;1.10;;;4.40;99.90;;;;;;5027840;28;20229;-78
2020/12/25 07:13:39;;;;;;;5.93;1.70;;;4.30;99.90;;;;;;5028711;28;20708;-80
2020/12/25 07:16:06;;;;;;;6.07;1.20;;;4.20;99.90;;;;;;5029030;28;20210;-82
2020/12/25 07:18:32;;;;;;;7.07;1.30;;;4.20;99.90;;;;;;5028582;28;20240;-82
2020/12/25 07:21:00;;;;;;;8.23;1.40;;;4.10;99.90;;;;;;5029597;28;20230;-81
2020/12/25 07:23:27;;;;;;;7.37;1.70;;;4.10;99.90;;;;;;5029347;28;20553;-80
2020/12/25 07:25:58;;;;;;;7.97;1.60;;;4.10;99.90;;;;;;5029410;28;20217;-82
2020/12/25 07:28:25;;;;;;;5.50;1.33;;;4.00;99.90;;;;;;5029692;28;20210;-82
2020/12/25 07:30:53;;;;;;;9.50;2.23;;;3.90;99.90;;;;;;5027920;28;20210;-81
2020/12/25 07:33:19;;;;;;;19.30;4.33;;;4.00;99.90;;;;;;5029760;28;20206;-81
2020/12/25 07:35:46;;;;;;;7.00;1.77;;;3.90;99.90;;;;;;5032661;28;20226;-83
2020/12/25 07:38:13;;;;;;;8.77;1.90;;;3.90;99.90;;;;;;5042168;28;20202;-81
2020/12/25 07:40:40;;;;;;;8.97;1.70;;;3.90;99.90;;;;;;5041630;28;20205;-81
2020/12/25 07:43:08;;;;;;;9.23;1.83;;;3.90;99.90;;;;;;5035464;28;20198;-81
2020/12/25 07:45:35;;;;;;;8.47;2.00;;;3.90;99.90;;;;;;5024839;28;20195;-82
2020/12/25 07:48:03;;;;;;;10.50;2.03;;;3.90;99.90;;;;;;5024046;28;20277;-80
2020/12/25 07:50:38;;;;;;;6.53;1.50;;;3.90;99.90;;;;;;5025689;28;20227;-82
2020/12/25 07:53:12;;;;;;;3.33;1.10;;;3.80;99.90;;;;;;5024575;28;20206;-80
2020/12/25 07:55:38;;;;;;;10.07;2.07;;;3.70;99.90;;;;;;5026934;28;20222;-81
2020/12/25 07:58:09;;;;;;;13.70;2.10;;;3.70;99.90;;;;;;5029959;28;20198;-81
2020/12/25 08:00:36;;;;;;;10.73;1.60;;;3.80;99.90;;;;;;5028944;28;20191;-81
2020/12/25 08:03:05;;;;;;;8.13;1.70;;;3.70;99.90;;;;;;5027869;28;20213;-80
2020/12/25 08:05:32;;;;;;;5.53;1.30;;;3.70;99.90;;;;;;5027537;28;20198;-80
2020/12/25 08:08:00;;;;;;;11.17;1.90;;;3.80;99.90;;;;;;5027732;28;20210;-81
2020/12/25 08:10:26;;;;;;;7.10;1.70;;;3.80;99.90;;;;;;5027442;28;20206;-80
2020/12/25 08:12:56;;;;;;;10.07;1.97;;;3.80;99.90;;;;;;5026792;28;20210;-80
2020/12/25 08:15:23;;;;;;;16.23;2.50;;;3.80;99.90;;;;;;5026066;28;20265;-80
2020/12/25 08:17:51;;;;;;;13.10;2.17;;;3.90;99.90;;;;;;5026085;28;20371;-80
2020/12/25 08:20:18;;;;;;;18.03;2.10;;;4.20;99.90;;;;;;5025482;28;20249;-81
2020/12/25 08:40:16;;;;;;;6.60;2.13;;;4.30;99.90;;;;;;4958257;28;20215;-81
2020/12/25 08:42:43;;;;;;;5.70;1.30;;;4.30;99.90;;;;;;4984045;28;20208;-80
2020/12/25 08:45:10;;;;;;;7.00;1.50;;;4.20;99.90;;;;;;4983368;28;20359;-80
2020/12/25 08:47:36;;;;;;;12.13;1.97;;;4.20;99.90;;;;;;4982488;28;20207;-79
2020/12/25 08:50:04;;;;;;;8.57;1.77;;;4.30;99.90;;;;;;4985232;28;20200;-81
2020/12/25 08:52:32;;;;;;;9.63;1.70;;;4.30;99.90;;;;;;4985373;28;20647;-82
2020/12/25 08:55:00;;;;;;;5.57;1.80;;;4.40;99.90;;;;;;4984434;28;20343;-83
2020/12/25 08:57:30;;;;;;;10.00;1.80;;;4.40;99.90;;;;;;4985829;28;20223;-83
2020/12/25 09:00:05;;;;;;;6.73;1.87;;;4.50;99.90;;;;;;4984841;28;20640;-82
2020/12/25 09:02:31;;;;;;;15.40;3.00;;;4.50;99.90;;;;;;4984724;28;20222;-83
2020/12/25 09:04:57;;;;;;;8.40;2.20;;;4.60;99.90;;;;;;4983479;28;20214;-83
2020/12/25 09:07:23;;;;;;;10.20;2.43;;;4.60;99.90;;;;;;4981271;28;20219;-83
2020/12/25 09:09:50;;;;;;;12.83;1.73;;;4.70;99.90;;;;;;4983593;28;20287;-81
2020/12/25 09:12:17;;;;;;;7.93;2.10;;;4.80;99.90;;;;;;4985054;28;20208;-81
2020/12/25 09:14:44;;;;;;;8.17;1.43;;;4.90;99.90;;;;;;5008614;22;20262;-81
2020/12/25 09:17:10;;;;;;;8.47;2.47;;;4.90;99.90;;;;;;5006161;28;20238;-81
2020/12/25 09:19:37;;;;;;;9.50;1.97;;;5.00;99.90;;;;;;5006230;28;20203;-81
2020/12/25 09:22:03;;;;;;;9.93;2.50;;;5.10;99.90;;;;;;5019461;28;20256;-83
2020/12/25 09:24:29;;;;;;;8.17;1.40;;;5.00;99.90;;;;;;5025091;28;20268;-82
2020/12/25 09:26:55;;;;;;;5.33;1.30;;;5.00;99.90;;;;;;5025665;28;20680;-82
2020/12/25 09:29:22;;;;;;;8.53;2.33;;;4.90;99.90;;;;;;5024564;28;20202;-82
2020/12/25 09:31:49;;;;;;;5.50;1.67;;;4.90;99.90;;;;;;5025880;28;20215;-84
2020/12/25 09:34:15;;;;;;;9.20;1.80;;;4.80;99.90;;;;;;5027425;28;20323;-82
2020/12/25 09:36:44;;;;;;;8.43;2.17;;;4.90;99.90;;;;;;5024591;28;20211;-81
2020/12/25 09:39:10;;;;;;;5.83;2.00;;;4.90;99.90;;;;;;5025352;28;20229;-82
2020/12/25 09:41:36;;;;;;;9.13;3.07;;;5.00;99.90;;;;;;5027732;28;20264;-81
2020/12/25 09:44:03;;;;;;;7.57;2.70;;;5.00;99.90;;;;;;5029057;28;20208;-82
2020/12/25 09:46:30;;;;;;;10.83;3.03;;;5.10;99.90;;;;;;5031157;28;20207;-81
2020/12/25 09:48:57;;;;;;;9.80;2.20;;;5.10;99.90;;;;;;5031659;28;20194;-80
2020/12/25 09:51:26;;;;;;;13.63;2.43;;;5.30;99.90;;;;;;5030812;28;20223;-81
2020/12/25 09:53:52;;;;;;;13.67;3.27;;;5.30;99.90;;;;;;5031317;28;20209;-81
2020/12/25 09:56:18;;;;;;;13.47;2.47;;;5.30;99.90;;;;;;5030975;28;20210;-81
2020/12/25 09:58:45;;;;;;;10.93;2.40;;;5.30;99.90;;;;;;5030661;28;20210;-81
2020/12/25 10:01:11;;;;;;;12.17;2.53;;;5.30;99.90;;;;;;5029517;28;20210;-80
2020/12/25 10:03:38;;;;;;;9.63;2.17;;;5.40;99.90;;;;;;5030574;28;20206;-80
2020/12/25 10:06:05;;;;;;;11.83;2.37;;;5.40;99.90;;;;;;5030397;28;20202;-81
2020/12/25 10:08:31;;;;;;;9.40;1.80;;;5.50;99.90;;;;;;5030638;28;20206;-80
2020/12/25 10:10:57;;;;;;;9.47;2.33;;;5.60;99.90;;;;;;5029615;28;20241;-80
2020/12/25 10:13:24;;;;;;;6.50;1.60;;;5.70;99.90;;;;;;5028709;28;20296;-80
2020/12/25 10:15:52;;;;;;;15.03;2.23;;;5.80;99.90;;;;;;5029580;28;20232;-80
2020/12/25 10:18:19;;;;;;;9.27;1.90;;;5.90;99.90;;;;;;5028687;28;20215;-80
2020/12/25 10:20:45;;;;;;;8.10;2.20;;;6.00;99.90;;;;;;5025399;28;20558;-80
2020/12/25 10:23:14;;;;;;;8.07;2.53;;;6.00;99.90;;;;;;5006015;28;20508;-79
2020/12/25 10:25:40;;;;;;;7.83;1.83;;;6.00;99.90;;;;;;5010069;28;20199;-80
2020/12/25 10:28:07;;;;;;;7.30;2.13;;;6.00;99.90;;;;;;5001487;28;20211;-81
2020/12/25 10:30:33;;;;;;;8.97;2.60;;;6.00;99.90;;;;;;5008294;28;20222;-81
2020/12/25 10:33:00;;;;;;;8.10;1.73;;;6.10;99.90;;;;;;5008153;28;20215;-80
2020/12/25 10:35:26;;;;;;;7.30;1.67;;;6.10;99.90;;;;;;5008162;28;20281;-79
2020/12/25 10:37:52;;;;;;;11.33;1.80;;;6.20;99.90;;;;;;5008583;28;20277;-80
2020/12/25 10:40:21;;;;;;;9.73;1.63;;;6.40;99.90;;;;;;5007859;28;20204;-80
2020/12/25 10:42:48;;;;;;;11.57;2.23;;;6.50;99.90;;;;;;5008500;28;20557;-79
2020/12/25 10:45:16;;;;;;;9.57;1.70;;;6.60;99.90;;;;;;5008728;28;20230;-79
2020/12/25 10:47:42;;;;;;;6.23;1.20;;;6.70;99.90;;;;;;5008198;28;20203;-79
2020/12/25 10:50:11;;;;;;;7.93;1.70;;;6.70;99.90;;;;;;5008108;28;20215;-79
2020/12/25 10:52:38;;;;;;;3.73;1.10;;;6.60;99.90;;;;;;5008344;28;20675;-80
2020/12/25 10:55:04;;;;;;;7.03;1.10;;;6.60;99.90;;;;;;5004845;28;20701;-79
2020/12/25 10:57:31;;;;;;;5.63;1.10;;;6.50;99.90;;;;;;5005474;28;20195;-78
2020/12/25 10:59:57;;;;;;;3.63;1.00;;;6.40;99.90;;;;;;5005494;28;20203;-79
2020/12/25 11:02:23;;;;;;;4.50;1.30;;;6.40;99.90;;;;;;5004342;28;20211;-79
2020/12/25 11:04:50;;;;;;;5.00;1.10;;;6.30;99.90;;;;;;5005760;28;20206;-79
2020/12/25 11:07:16;;;;;;;9.97;1.93;;;6.30;99.90;;;;;;5006155;28;20293;-80
2020/12/25 11:09:42;;;;;;;10.60;3.73;;;6.30;99.90;;;;;;5003797;28;20209;-79
2020/12/25 11:12:08;;;;;;;6.40;1.47;;;6.30;99.90;;;;;;5003769;28;20203;-80
2020/12/25 11:14:35;;;;;;;6.70;1.07;;;6.30;99.90;;;;;;5003110;28;20565;-80
2020/12/25 11:17:02;;;;;;;4.67;1.17;;;6.40;99.90;;;;;;5004222;28;20205;-80
2020/12/25 11:19:28;;;;;;;3.30;0.80;;;6.50;99.90;;;;;;5006631;28;20211;-81
2020/12/25 11:21:54;;;;;;;4.10;1.00;;;6.60;99.90;;;;;;5005265;28;20221;-80
2020/12/25 11:24:20;;;;;;;5.77;1.20;;;6.50;99.90;;;;;;5004020;28;20206;-80
2020/12/25 11:26:47;;;;;;;6.23;1.00;;;6.30;99.90;;;;;;5005475;28;20195;-81
2020/12/25 11:29:13;;;;;;;2.87;1.03;;;6.20;99.90;;;;;;5006073;28;20199;-79
2020/12/25 11:31:41;;;;;;;3.77;1.30;;;6.20;99.90;;;;;;5005537;28;20295;-82
2020/12/25 11:34:07;;;;;;;4.17;1.47;;;6.10;99.90;;;;;;5005937;28;20200;-81
2020/12/25 11:36:35;;;;;;;11.00;3.97;;;6.00;99.90;;;;;;5005073;28;20770;-80
2020/12/25 11:39:03;;;;;;;5.30;1.63;;;5.90;99.90;;;;;;5004515;28;20214;-81
2020/12/25 11:41:29;;;;;;;4.93;1.87;;;6.00;99.90;;;;;;5004798;28;20203;-80
2020/12/25 11:43:55;;;;;;;6.57;1.40;;;5.90;99.90;;;;;;5004285;28;20207;-80
2020/12/25 11:46:24;;;;;;;8.23;3.77;;;6.00;99.90;;;;;;5005219;28;20206;-81
2020/12/25 11:48:52;;;;;;;3.43;1.50;;;6.00;99.90;;;;;;5004696;28;20214;-79
2020/12/25 11:51:20;;;;;;;3.77;1.30;;;6.00;99.90;;;;;;5003275;28;20226;-79
2020/12/25 11:53:47;;;;;;;6.43;2.47;;;6.10;99.90;;;;;;5003899;28;20210;-83
2020/12/25 11:56:13;;;;;;;4.83;1.10;;;6.00;99.90;;;;;;5003421;28;20235;-79
2020/12/25 11:58:42;;;;;;;5.93;1.20;;;6.00;99.90;;;;;;5003285;28;20941;-79
2020/12/25 12:01:08;;;;;;;6.60;1.03;;;6.00;99.90;;;;;;5003973;28;20876;-80
2020/12/25 12:03:34;;;;;;;3.37;1.47;;;6.00;99.90;;;;;;5003039;28;20203;-80
2020/12/25 12:06:02;;;;;;;6.50;1.80;;;5.90;99.90;;;;;;5006460;28;21003;-81
2020/12/25 12:08:29;;;;;;;5.77;1.80;;;6.00;99.90;;;;;;5008734;28;20546;-81
2020/12/25 12:10:55;;;;;;;14.27;3.60;;;6.00;99.90;;;;;;5009419;28;20207;-82
2020/12/25 12:13:21;;;;;;;4.20;1.10;;;6.00;99.90;;;;;;5009508;28;20243;-91
2020/12/25 12:15:48;;;;;;;5.53;1.70;;;6.00;99.90;;;;;;5011502;28;20219;-89
2020/12/25 12:18:14;;;;;;;5.57;1.83;;;6.00;99.90;;;;;;5023685;28;20204;-87
2020/12/25 12:20:41;;;;;;;6.50;1.77;;;6.10;99.90;;;;;;5025051;28;20305;-91
2020/12/25 12:23:09;;;;;;;3.73;1.67;;;6.10;99.90;;;;;;5024340;28;20203;-88
2020/12/25 12:25:35;;;;;;;10.17;1.80;;;6.20;99.90;;;;;;5012023;28;20200;-91
2020/12/25 12:28:01;;;;;;;3.23;1.37;;;6.20;99.90;;;;;;5009804;28;20214;-91
2020/12/25 12:30:28;;;;;;;3.50;1.13;;;6.10;99.90;;;;;;5009029;28;20614;-88
2020/12/25 12:32:54;;;;;;;4.00;1.30;;;6.10;99.90;;;;;;5010145;28;20524;-89
2020/12/25 12:35:20;;;;;;;7.33;1.30;;;6.10;99.90;;;;;;5005963;28;20223;-79
2020/12/25 12:37:47;;;;;;;6.80;1.97;;;6.10;99.90;;;;;;5004776;28;20736;-78
2020/12/25 12:40:15;;;;;;;6.00;1.23;;;6.10;99.90;;;;;;5005750;28;20203;-78
2020/12/25 12:42:41;;;;;;;9.77;1.33;;;6.20;99.90;;;;;;5007378;28;20207;-80
2020/12/25 12:45:09;;;;;;;4.83;1.50;;;6.20;99.90;;;;;;4999496;28;20218;-79
2020/12/25 12:47:38;;;;;;;4.70;1.63;;;6.30;99.90;;;;;;5002723;28;20212;-80
2020/12/25 12:50:05;;;;;;;7.17;1.43;;;6.40;99.90;;;;;;5000008;28;20826;-80
2020/12/25 12:52:31;;;;;;;3.97;1.27;;;6.50;99.90;;;;;;5004131;28;20644;-80
2020/12/25 12:54:58;;;;;;;4.90;1.53;;;6.60;99.90;;;;;;5003184;28;20230;-81
2020/12/25 12:57:26;;;;;;;6.03;1.47;;;6.60;99.90;;;;;;5003062;28;20639;-80
2020/12/25 12:59:52;;;;;;;4.87;1.10;;;6.50;99.90;;;;;;5002735;28;20574;-81
2020/12/25 13:02:19;;;;;;;6.90;1.33;;;6.50;99.90;;;;;;5003392;28;20593;-80
2020/12/25 13:04:45;;;;;;;6.90;1.60;;;6.40;99.90;;;;;;5003548;28;20207;-80
2020/12/25 13:07:11;;;;;;;3.90;1.23;;;6.40;99.90;;;;;;5003516;28;20218;-80
2020/12/25 13:09:38;;;;;;;5.27;1.47;;;6.30;99.90;;;;;;5003030;28;20846;-78
2020/12/25 13:12:04;;;;;;;5.70;1.37;;;6.30;99.90;;;;;;5003563;28;20203;-78